createdAt,value
2022-10-04T00:03:47.517Z,11.77
2022-10-04T00:09:05.189Z,11.77
2022-10-04T00:14:31.109Z,11.74
2022-10-04T00:19:42.885Z,11.74
2022-10-04T00:25:08.446Z,11.73
2022-10-04T00:30:37.590Z,11.71
2022-10-04T00:35:40.207Z,11.73
2022-10-04T00:40:56.572Z,11.73
2022-10-04T00:46:10.549Z,11.72
2022-10-04T00:51:38.150Z,11.71
2022-10-04T00:56:45.422Z,11.67
2022-10-04T01:01:55.391Z,11.64
2022-10-04T01:07:02.327Z,11.60
2022-10-04T01:12:17.093Z,11.58
2022-10-04T01:17:26.410Z,11.57
2022-10-04T01:22:43.135Z,11.54
2022-10-04T01:27:44.950Z,11.54
2022-10-04T01:32:54.662Z,11.53
2022-10-04T01:37:56.367Z,11.54
2022-10-04T01:43:05.371Z,11.55
2022-10-04T01:48:15.525Z,11.53
2022-10-04T01:53:29.107Z,11.51
2022-10-04T01:58:45.857Z,11.51
2022-10-04T02:04:33.573Z,11.49
2022-10-04T02:09:43.717Z,11.47
2022-10-04T02:14:53.234Z,11.45
2022-10-04T02:19:59.021Z,11.41
2022-10-04T02:25:06.142Z,11.39
2022-10-04T02:30:12.493Z,11.37
2022-10-04T02:35:14.352Z,11.37
2022-10-04T02:40:23.288Z,11.31
2022-10-04T02:45:29.589Z,11.25
2022-10-04T02:50:37.637Z,11.19
2022-10-04T02:55:42.687Z,11.16
2022-10-04T03:00:55.299Z,11.10
2022-10-04T03:06:05.897Z,11.03
2022-10-04T03:11:08.310Z,10.98
2022-10-04T03:16:12.454Z,10.90
2022-10-04T03:21:16.445Z,10.89
2022-10-04T03:26:46.551Z,10.90
2022-10-04T03:31:53.258Z,10.89
2022-10-04T03:36:59.151Z,10.89
2022-10-04T03:42:19.239Z,10.86
2022-10-04T03:47:25.441Z,10.82
2022-10-04T03:52:33.211Z,10.81
2022-10-04T03:57:35.369Z,10.79
2022-10-04T04:02:45.982Z,10.78
2022-10-04T04:08:14.736Z,10.76
2022-10-04T04:13:31.585Z,10.70
2022-10-04T04:18:37.858Z,10.66
2022-10-04T04:23:50.382Z,10.63
2022-10-04T04:28:58.377Z,10.59
2022-10-04T04:34:12.391Z,10.54
2022-10-04T04:39:37.375Z,10.51
2022-10-04T04:44:57.313Z,10.50
2022-10-04T04:50:07.675Z,10.47
2022-10-04T04:55:27.413Z,10.47
2022-10-04T05:00:31.894Z,10.44
2022-10-04T05:05:34.814Z,10.43
2022-10-04T05:10:58.610Z,10.42
2022-10-04T05:16:01.111Z,10.42
2022-10-04T05:21:12.017Z,10.43
2022-10-04T05:26:16.601Z,10.42
2022-10-04T05:31:42.124Z,10.42
2022-10-04T05:37:08.271Z,10.48
2022-10-04T05:42:26.933Z,10.52
2022-10-04T05:47:36.893Z,10.51
2022-10-04T05:52:40.932Z,10.55
2022-10-04T05:58:09.068Z,10.56
2022-10-04T06:03:21.451Z,10.55
2022-10-04T06:08:44.817Z,10.56
2022-10-04T06:14:18.756Z,10.58
2022-10-04T06:19:32.420Z,10.60
2022-10-04T06:24:38.802Z,10.62
2022-10-04T06:30:12.265Z,10.64
2022-10-04T06:35:48.559Z,10.68
2022-10-04T06:40:54.238Z,10.73
2022-10-04T06:46:02.978Z,10.83
2022-10-04T06:51:33.733Z,10.94
2022-10-04T06:57:08.400Z,11.05
2022-10-04T07:02:19.269Z,11.17
2022-10-04T07:07:37.003Z,11.30
2022-10-04T07:12:45.226Z,11.42
2022-10-04T07:17:50.315Z,11.57
2022-10-04T07:22:59.609Z,11.69
2022-10-04T07:28:33.530Z,11.83
2022-10-04T07:33:46.785Z,11.98
2022-10-04T07:38:58.343Z,12.16
2022-10-04T07:44:07.160Z,12.32
2022-10-04T07:49:16.525Z,12.47
2022-10-04T07:54:40.597Z,12.60
2022-10-04T07:59:52.791Z,12.54
2022-10-04T08:05:07.814Z,12.61
2022-10-04T08:10:27.486Z,12.80
2022-10-04T08:15:38.955Z,13.00
2022-10-04T08:21:06.972Z,13.22
2022-10-04T08:26:27.569Z,13.24
2022-10-04T08:31:39.452Z,13.26
2022-10-04T08:36:52.013Z,13.43
2022-10-04T08:42:22.663Z,13.61
2022-10-04T08:47:58.925Z,13.74
2022-10-04T08:53:22.790Z,13.95
2022-10-04T08:58:49.807Z,14.15
2022-10-04T09:04:11.191Z,14.29
2022-10-04T09:09:44.638Z,14.45
2022-10-04T09:14:50.118Z,14.61
2022-10-04T09:20:37.744Z,14.80
2022-10-04T09:25:53.417Z,14.99
2022-10-04T09:31:27.865Z,15.16
2022-10-04T09:36:58.316Z,15.37
2022-10-04T09:42:15.411Z,15.60
2022-10-04T09:47:45.320Z,15.71
2022-10-04T09:53:11.150Z,15.84
2022-10-04T09:58:29.614Z,15.80
2022-10-04T10:03:44.129Z,15.73
2022-10-04T10:08:58.829Z,15.59
2022-10-04T10:14:28.282Z,15.52
2022-10-04T10:19:44.367Z,15.61
2022-10-04T10:25:13.323Z,15.83
2022-10-04T10:30:39.868Z,15.92
2022-10-04T10:36:06.990Z,15.99
2022-10-04T10:41:26.136Z,16.11
2022-10-04T10:47:11.905Z,16.22
2022-10-04T10:52:51.782Z,16.45
2022-10-04T10:58:14.425Z,16.57
2022-10-04T11:03:52.740Z,16.77
2022-10-04T11:09:23.693Z,16.98
2022-10-04T11:14:50.174Z,17.28
2022-10-04T11:20:35.125Z,17.63
2022-10-04T11:25:57.288Z,17.64
2022-10-04T11:30:58.921Z,18.31
2022-10-04T11:36:17.915Z,18.80
2022-10-04T11:41:50.315Z,19.37
2022-10-04T11:47:12.761Z,19.74
2022-10-04T11:52:40.483Z,19.92
2022-10-04T11:57:55.205Z,20.37
2022-10-04T12:03:09.404Z,20.18
2022-10-04T12:08:49.212Z,20.64
2022-10-04T12:13:57.799Z,21.04
2022-10-04T12:19:07.587Z,21.08
2022-10-04T12:24:41.265Z,21.36
2022-10-04T12:30:00.266Z,21.43
2022-10-04T12:35:14.153Z,21.98
2022-10-04T12:40:24.434Z,23.02
2022-10-04T12:45:52.732Z,23.29
2022-10-04T12:51:02.901Z,23.63
2022-10-04T12:56:11.635Z,24.41
2022-10-04T13:01:45.847Z,24.83
2022-10-04T13:06:59.455Z,25.16
2022-10-04T13:12:22.824Z,25.43
2022-10-04T13:17:36.156Z,25.58
2022-10-04T13:23:28.993Z,25.56
2022-10-04T13:28:44.036Z,26.21
2022-10-04T13:34:14.468Z,26.05
2022-10-04T13:39:42.930Z,26.19
2022-10-04T13:45:02.572Z,26.47
2022-10-04T13:50:31.971Z,26.07
2022-10-04T13:56:22.918Z,25.22
2022-10-04T14:01:50.782Z,25.32
2022-10-04T14:07:11.734Z,25.85
2022-10-04T14:12:33.962Z,26.27
2022-10-04T14:18:02.534Z,25.59
2022-10-04T14:23:10.532Z,25.73
2022-10-04T14:28:27.454Z,25.90
2022-10-04T14:33:32.223Z,25.38
2022-10-04T14:38:42.732Z,25.37
2022-10-04T14:44:03.228Z,24.60
2022-10-04T14:49:30.941Z,24.66
2022-10-04T14:54:56.647Z,24.70
2022-10-04T15:00:19.232Z,24.90
2022-10-04T15:05:36.099Z,24.89
2022-10-04T15:10:51.024Z,24.00
2022-10-04T15:16:18.716Z,22.47
2022-10-04T15:21:46.773Z,21.54
2022-10-04T15:27:18.919Z,20.83
2022-10-04T15:32:24.353Z,20.43
2022-10-04T15:37:57.143Z,20.10
2022-10-04T15:43:23.611Z,19.79
2022-10-04T15:48:33.048Z,19.56
2022-10-04T15:53:55.955Z,19.49
2022-10-04T15:59:20.366Z,19.35
2022-10-04T16:04:25.909Z,19.13
2022-10-04T16:09:53.902Z,18.88
2022-10-04T16:15:24.571Z,18.65
2022-10-04T16:21:00.708Z,18.52
2022-10-04T16:26:19.917Z,18.26
2022-10-04T16:31:45.909Z,18.09
2022-10-04T16:37:12.242Z,17.86
2022-10-04T16:42:18.727Z,17.71
2022-10-04T16:47:31.953Z,17.62
2022-10-04T16:53:02.579Z,17.44
2022-10-04T16:58:26.837Z,17.25
2022-10-04T17:03:36.040Z,17.12
2022-10-04T17:08:49.955Z,17.01
2022-10-04T17:14:02.379Z,16.83
2022-10-04T17:19:33.951Z,16.74
2022-10-04T17:25:12.551Z,16.64
2022-10-04T17:30:22.223Z,16.50
2022-10-04T17:35:56.498Z,16.83
2022-10-04T17:41:35.358Z,16.45
2022-10-04T17:47:14.256Z,16.28
2022-10-04T17:52:43.047Z,16.11
2022-10-04T17:57:53.750Z,16.03
2022-10-04T18:03:12.593Z,15.91
2022-10-04T18:08:48.933Z,15.80
2022-10-04T18:14:03.945Z,15.79
2022-10-04T18:19:51.140Z,15.72
2022-10-04T18:25:31.290Z,15.64
2022-10-04T18:31:00.515Z,15.64
2022-10-04T18:36:10.366Z,15.59
2022-10-04T18:41:23.355Z,15.61
2022-10-04T18:46:26.154Z,15.61
2022-10-04T18:51:43.920Z,15.62
2022-10-04T18:56:52.013Z,15.55
2022-10-04T19:02:08.433Z,15.57
2022-10-04T19:07:15.750Z,15.53
2022-10-04T19:12:49.158Z,15.52
2022-10-04T19:18:12.064Z,15.50
2022-10-04T19:23:33.680Z,15.50
2022-10-04T19:28:38.048Z,15.45
2022-10-04T19:33:39.993Z,15.43
2022-10-04T19:38:53.514Z,15.41
2022-10-04T19:44:16.342Z,15.37
2022-10-04T19:49:41.640Z,15.37
2022-10-04T19:54:47.765Z,15.34
2022-10-04T19:59:52.905Z,15.39
2022-10-04T20:04:56.349Z,15.34
2022-10-04T20:10:28.493Z,15.25
2022-10-04T20:15:34.816Z,15.15
2022-10-04T20:20:39.662Z,15.10
2022-10-04T20:25:44.612Z,15.06
2022-10-04T20:30:52.260Z,15.08
2022-10-04T20:36:02.088Z,15.08
2022-10-04T20:41:05.377Z,15.07
2022-10-04T20:46:22.184Z,15.09
2022-10-04T20:51:30.142Z,15.06
2022-10-04T20:56:33.340Z,15.04
2022-10-04T21:01:36.300Z,15.02
2022-10-04T21:06:55.978Z,14.98
2022-10-04T21:12:02.770Z,14.98
2022-10-04T21:17:30.011Z,14.98
2022-10-04T21:22:38.760Z,14.98
2022-10-04T21:27:45.559Z,14.96
2022-10-04T21:32:49.038Z,14.96
2022-10-04T21:37:54.139Z,14.95
2022-10-04T21:42:56.004Z,14.96
2022-10-04T21:47:58.689Z,14.95
2022-10-04T21:53:02.926Z,14.91
2022-10-04T21:58:07.076Z,14.92
2022-10-04T22:03:08.775Z,14.92
2022-10-04T22:08:13.017Z,14.92
2022-10-04T22:13:17.321Z,14.91
2022-10-04T22:18:22.081Z,14.92
2022-10-04T22:23:28.290Z,14.92
2022-10-04T22:28:32.820Z,14.92
2022-10-04T22:33:42.247Z,14.92
2022-10-04T22:39:08.848Z,14.93
2022-10-04T22:44:19.591Z,14.93
2022-10-04T22:49:35.391Z,14.92
2022-10-04T22:54:45.206Z,14.92
2022-10-04T22:59:52.965Z,14.90
2022-10-04T23:05:11.872Z,14.89
2022-10-04T23:10:18.572Z,14.89
2022-10-04T23:15:20.859Z,14.87
2022-10-04T23:20:25.005Z,14.88
2022-10-04T23:25:28.606Z,14.88
2022-10-04T23:30:32.644Z,14.88
2022-10-04T23:35:35.460Z,14.88
2022-10-04T23:40:39.408Z,14.86
2022-10-04T23:45:45.637Z,14.86
2022-10-04T23:50:47.868Z,14.86
2022-10-04T23:55:54.288Z,14.85
